Time;durP1;ratioP1;P1;durP2;ratioP2;P2;SDS_P1;SDS_P2;PMS_P1;PMS_P2;Temp;Humidity;BMP_temperature;BMP_pressure;BME280_temperature;BME280_humidity;BME280_pressure;Samples;Min_cycle;Max_cycle;Signal;HPM_P1;HPM_P2
2022/05/26 00:04:27;;;;;;;0.70;0.28;;;;;;;20.89;40.25;101735.03;16133411;19;129820;-50
2022/05/26 00:09:48;;;;;;;0.60;0.20;;;;;;;20.88;40.17;101738.03;16132679;19;130396;-45
2022/05/26 00:15:12;;;;;;;0.43;0.10;;;;;;;20.87;40.07;101737.22;16134905;19;129633;-53
2022/05/26 00:20:34;;;;;;;0.82;0.17;;;;;;;20.87;40.00;101742.78;16124780;19;131746;-51
2022/05/26 00:25:55;;;;;;;0.40;0.15;;;;;;;20.86;40.18;101735.50;16121928;19;130762;-49
2022/05/26 00:31:17;;;;;;;0.47;0.20;;;;;;;20.86;39.87;101737.47;16123375;19;130857;-50
2022/05/26 00:36:41;;;;;;;1.25;0.10;;;;;;;20.85;39.97;101735.78;16121768;19;130294;-52
2022/05/26 00:42:06;;;;;;;0.75;0.10;;;;;;;20.84;40.39;101739.63;16125234;19;130884;-51
2022/05/26 00:47:31;;;;;;;0.25;0.17;;;;;;;20.82;40.10;101742.63;16126397;19;129891;-50
2022/05/26 00:52:58;;;;;;;1.35;0.20;;;;;;;20.83;40.41;101733.22;16130685;19;130086;-51
2022/05/26 00:58:28;;;;;;;0.40;0.20;;;;;;;20.83;39.89;101733.22;16130819;19;129681;-50
2022/05/26 01:03:56;;;;;;;0.95;0.20;;;;;;;20.82;39.93;101745.41;16131406;19;130866;-51
2022/05/26 01:09:20;;;;;;;0.85;0.30;;;;;;;20.80;40.49;101747.59;16126065;19;129709;-46
2022/05/26 01:14:52;;;;;;;0.90;0.10;;;;;;;20.81;40.15;101749.28;16130247;19;130751;-50
2022/05/26 01:20:21;;;;;;;1.73;0.20;;;;;;;20.81;39.97;101740.09;16124404;19;130318;-48
2022/05/26 01:25:58;;;;;;;1.98;0.13;;;;;;;20.80;40.20;101747.59;16126017;19;130322;-50
2022/05/26 01:31:26;;;;;;;0.43;0.20;;;;;;;20.77;40.04;101756.44;16127628;19;130588;-46
2022/05/26 01:36:53;;;;;;;0.77;0.20;;;;;;;20.77;40.41;101752.78;16126352;19;130102;-48
2022/05/26 01:43:05;;;;;;;1.08;0.30;;;;;;;20.77;40.21;101756.44;16127363;19;130598;-51
2022/05/26 01:48:33;;;;;;;1.73;0.30;;;;;;;20.75;40.23;101761.34;16123151;19;129594;-48
2022/05/26 01:54:01;;;;;;;1.30;0.32;;;;;;;20.75;40.27;101769.69;16139837;19;131037;-45
2022/05/26 01:59:28;;;;;;;0.32;0.20;;;;;;;20.74;40.30;101771.63;16139956;19;130538;-49
2022/05/26 02:04:56;;;;;;;0.65;0.30;;;;;;;20.74;40.04;101781.91;16141859;19;130471;-47
2022/05/26 02:10:25;;;;;;;0.60;0.20;;;;;;;20.73;40.24;101791.34;16141404;19;130467;-48
2022/05/26 02:15:53;;;;;;;0.20;0.20;;;;;;;20.71;40.28;101799.91;16142415;19;130838;-47
2022/05/26 02:21:23;;;;;;;1.40;0.20;;;;;;;20.73;40.39;101813.56;16141377;19;130391;-53
2022/05/26 02:26:45;;;;;;;0.47;0.30;;;;;;;20.71;40.14;101805.47;16134320;19;130703;-51
2022/05/26 02:32:10;;;;;;;0.50;0.20;;;;;;;20.71;40.54;101810.19;16139841;19;128994;-51
2022/05/26 02:37:33;;;;;;;0.85;0.20;;;;;;;20.70;40.55;101819.59;16139117;19;130902;-45
2022/05/26 02:42:59;;;;;;;1.00;0.20;;;;;;;20.69;40.30;101812.34;16139763;19;129773;-51
2022/05/26 02:48:31;;;;;;;0.98;0.30;;;;;;;20.69;40.21;101817.91;16135690;19;130494;-47
2022/05/26 02:54:20;;;;;;;3.58;0.55;;;;;;;20.69;40.19;101820.69;16137381;19;130836;-48
2022/05/26 02:59:51;;;;;;;1.20;0.40;;;;;;;20.68;40.38;101825.41;16138899;19;129895;-47
2022/05/26 03:05:30;;;;;;;0.63;0.22;;;;;;;20.68;40.43;101819.84;16132317;19;130438;-47
2022/05/26 03:11:01;;;;;;;0.95;0.35;;;;;;;20.66;40.29;101823.97;16136283;19;130536;-51
2022/05/26 03:16:22;;;;;;;1.40;0.38;;;;;;;20.65;40.46;101827.84;16136411;19;130668;-51
2022/05/26 03:21:45;;;;;;;1.08;0.40;;;;;;;20.65;40.29;101833.41;16135841;19;129217;-50
2022/05/26 03:27:07;;;;;;;0.68;0.30;;;;;;;20.64;40.52;101837.25;16132483;19;130202;-51
2022/05/26 03:32:29;;;;;;;1.02;0.30;;;;;;;20.63;40.53;101841.13;16134756;19;130666;-52
2022/05/26 03:43:39;;;;;;;0.95;0.35;;;;;;;20.64;40.59;101848.38;16129818;19;130926;-51
2022/05/26 03:49:01;;;;;;;0.73;0.25;;;;;;;20.62;40.28;101847.75;16130548;19;130659;-50
2022/05/26 03:54:27;;;;;;;2.10;0.30;;;;;;;20.62;40.51;101862.50;16132781;19;130901;-46
2022/05/26 03:59:48;;;;;;;2.72;0.43;;;;;;;20.60;40.69;101859.97;16133079;19;131443;-49
2022/05/26 04:05:11;;;;;;;0.85;0.30;;;;;;;20.60;40.73;101865.53;16131561;19;130256;-51
2022/05/26 04:10:33;;;;;;;0.75;0.10;;;;;;;20.58;40.51;101873.25;16134586;19;129285;-47
2022/05/26 04:15:56;;;;;;;1.48;0.38;;;;;;;20.58;40.16;101862.13;16130150;19;129968;-46
2022/05/26 04:21:19;;;;;;;1.08;0.40;;;;;;;20.58;40.53;101878.81;16131763;19;129740;-49
2022/05/26 04:26:40;;;;;;;0.43;0.30;;;;;;;20.57;40.75;101887.41;16131767;19;129584;-50
2022/05/26 04:32:03;;;;;;;1.10;0.38;;;;;;;20.57;40.73;101892.97;16132370;19;129081;-48
2022/05/26 04:37:26;;;;;;;3.30;0.50;;;;;;;20.56;40.40;101900.44;16130895;19;130776;-47
2022/05/26 04:42:48;;;;;;;1.27;0.50;;;;;;;20.56;40.82;101906.00;16132531;19;130218;-50
2022/05/26 04:48:10;;;;;;;0.88;0.30;;;;;;;20.56;40.76;101913.50;16127732;19;132171;-46
2022/05/26 04:53:32;;;;;;;0.55;0.28;;;;;;;20.56;40.82;101913.50;16131632;19;130560;-48
2022/05/26 04:58:54;;;;;;;0.90;0.40;;;;;;;20.56;40.38;101924.63;16131134;19;130310;-48
2022/05/26 05:04:16;;;;;;;0.88;0.40;;;;;;;20.55;40.42;101918.22;16130541;19;129583;-52
2022/05/26 05:09:39;;;;;;;3.03;0.40;;;;;;;20.53;40.85;101925.94;16125103;19;130885;-49
2022/05/26 05:15:03;;;;;;;3.10;0.65;;;;;;;20.53;40.45;101934.28;16128718;19;130167;-51
2022/05/26 05:20:26;;;;;;;1.37;0.37;;;;;;;20.53;40.61;101938.97;16124495;19;130549;-50
2022/05/26 05:25:51;;;;;;;1.30;0.50;;;;;;;20.53;40.35;101950.97;16128775;19;130481;-49
2022/05/26 05:31:17;;;;;;;;;;;;;;;20.50;40.89;101951.44;16143022;19;130682;-48
2022/05/26 05:36:39;;;;;;;2.78;0.57;;;;;;;20.50;40.89;101959.75;16149669;19;130465;-46
2022/05/26 05:42:01;;;;;;;1.30;0.50;;;;;;;20.50;40.92;101968.09;16146118;19;129940;-50
2022/05/26 05:47:23;;;;;;;1.40;0.50;;;;;;;20.49;40.87;101968.34;16142345;19;130101;-47
2022/05/26 05:52:45;;;;;;;2.55;0.90;;;;;;;20.50;40.86;101976.44;16145668;19;129928;-48
2022/05/26 05:58:08;;;;;;;1.70;0.40;;;;;;;20.49;40.90;101983.09;16144680;19;129401;-48
2022/05/26 06:03:34;;;;;;;1.50;0.50;;;;;;;20.50;40.69;101981.13;16145323;19;130256;-50
2022/05/26 06:08:56;;;;;;;5.97;1.00;;;;;;;20.50;40.73;101986.69;16135802;19;129674;-48
2022/05/26 06:14:18;;;;;;;3.15;0.70;;;;;;;20.50;40.57;101995.91;16142946;19;130633;-52
2022/05/26 06:19:40;;;;;;;4.15;0.90;;;;;;;20.51;40.97;102000.38;16136845;19;129063;-53
2022/05/26 06:25:03;;;;;;;2.20;0.80;;;;;;;20.51;40.53;102003.16;16138076;19;130818;-50
2022/05/26 06:30:31;;;;;;;6.07;1.25;;;;;;;20.52;40.65;102004.88;16132464;19;131216;-50
2022/05/26 06:47:21;;;;;;;4.93;1.42;;;;;;;20.60;40.54;102026.78;16138034;19;129322;-51
2022/05/26 06:52:43;;;;;;;9.90;1.80;;;;;;;20.59;40.76;102027.84;16137508;19;129906;-50
2022/05/26 06:58:05;;;;;;;10.85;2.00;;;;;;;20.61;40.87;102038.78;16136537;19;129739;-53
2022/05/26 07:03:27;;;;;;;6.78;1.80;;;;;;;20.63;41.01;102041.31;16137618;19;130479;-50
2022/05/26 07:08:50;;;;;;;6.28;1.50;;;;;;;20.64;40.83;102045.78;16133919;19;129853;-54
2022/05/26 07:14:13;;;;;;;5.63;1.30;;;;;;;20.65;40.95;102045.53;16136582;19;129734;-47
2022/05/26 07:19:36;;;;;;;3.22;1.45;;;;;;;20.67;41.04;102056.44;16126513;19;130735;-49
2022/05/26 07:24:58;;;;;;;5.38;1.55;;;;;;;20.68;41.02;102058.13;16135602;19;130738;-50
2022/05/26 07:30:20;;;;;;;4.10;1.60;;;;;;;20.69;41.17;102069.03;16131476;19;130106;-49
2022/05/26 07:35:42;;;;;;;3.78;1.10;;;;;;;20.67;40.83;102056.44;16129272;19;130511;-49
2022/05/26 07:41:16;;;;;;;5.53;1.50;;;;;;;20.68;41.19;102060.91;16134551;19;130587;-46
2022/05/26 07:46:39;;;;;;;3.13;1.00;;;;;;;20.70;41.17;102067.94;16131571;19;130266;-49
2022/05/26 07:52:02;;;;;;;2.55;1.13;;;;;;;20.73;41.57;102063.84;16133249;19;129169;-45
2022/05/26 07:57:26;;;;;;;3.65;0.93;;;;;;;20.77;41.44;102080.94;16128158;19;130053;-43
2022/05/26 08:02:48;;;;;;;3.63;1.33;;;;;;;20.82;41.26;102070.81;16126802;19;130702;-44
2022/05/26 08:08:10;;;;;;;3.85;1.35;;;;;;;20.89;41.46;102067.94;16118049;19;132089;-43
2022/05/26 08:13:32;;;;;;;3.70;1.35;;;;;;;20.96;41.60;102070.63;16127647;19;130010;-41
2022/05/26 08:18:53;;;;;;;8.77;1.45;;;;;;;21.01;41.57;102077.19;16123297;19;130365;-40
2022/05/26 08:24:17;;;;;;;8.77;1.45;;;;;;;21.05;41.48;102077.56;16126057;19;130418;-43
2022/05/26 08:29:41;;;;;;;6.57;1.13;;;;;;;21.12;41.69;102083.03;16123818;19;129652;-41
2022/05/26 08:35:06;;;;;;;2.63;1.13;;;;;;;21.16;41.85;102089.84;16128851;19;129446;-45
2022/05/26 08:40:42;;;;;;;4.35;1.23;;;;;;;21.20;41.84;102093.88;16132419;19;130579;-48
2022/05/26 08:46:07;;;;;;;4.80;1.10;;;;;;;21.21;41.64;102098.34;16126206;19;129876;-42
2022/05/26 08:51:29;;;;;;;;;;;;;;;21.20;41.55;102100.28;16138153;19;130756;-43
2022/05/26 08:56:51;;;;;;;3.53;1.33;;;;;;;21.27;41.61;102096.56;16134940;19;128861;-43
2022/05/26 09:02:21;;;;;;;4.32;1.05;;;;;;;21.31;41.44;102111.69;16143814;19;130215;-42
2022/05/26 09:13:34;;;;;;;2.78;1.17;;;;;;;21.30;41.11;102119.19;16151410;19;129922;-42
2022/05/26 09:19:17;;;;;;;3.88;0.90;;;;;;;21.30;41.20;102135.03;16144151;19;129670;-44
2022/05/26 09:24:39;;;;;;;3.80;0.80;;;;;;;21.30;41.26;102135.03;16140936;19;129130;-46
2022/05/26 09:30:27;;;;;;;4.50;1.00;;;;;;;21.30;41.37;102141.47;16140778;19;129773;-42
2022/05/26 09:35:49;;;;;;;2.15;0.90;;;;;;;21.29;41.29;102139.75;16142981;19;129499;-42
2022/05/26 09:41:16;;;;;;;3.25;0.98;;;;;;;21.28;40.96;102132.50;16141725;19;131001;-45
2022/05/26 09:46:38;;;;;;;4.65;1.10;;;;;;;21.29;41.21;102150.06;16134378;19;129890;-42
2022/05/26 09:52:11;;;;;;;6.50;1.70;;;;;;;21.29;40.99;102148.13;16131961;19;129656;-43
2022/05/26 09:57:33;;;;;;;10.85;1.85;;;;;;;21.28;41.41;102154.75;16131151;19;130611;-46
2022/05/26 10:02:55;;;;;;;7.88;1.38;;;;;;;21.28;41.15;102160.31;16132928;19;130507;-47
2022/05/26 10:08:31;;;;;;;9.15;1.88;;;;;;;21.30;41.40;102154.50;16136495;19;129758;-47
2022/05/26 10:14:19;;;;;;;10.32;1.85;;;;;;;21.31;41.81;102154.28;16142159;19;130666;-42
2022/05/26 10:20:04;;;;;;;17.80;2.25;;;;;;;21.33;41.89;102159.63;16141955;19;129788;-42
2022/05/26 10:26:04;;;;;;;8.77;2.22;;;;;;;21.32;41.76;102161.56;16144414;19;129528;-44
2022/05/26 10:31:57;;;;;;;10.48;2.20;;;;;;;21.32;42.00;102152.34;16141580;19;129605;-42
2022/05/26 10:37:49;;;;;;;11.32;1.92;;;;;;;21.31;41.69;102156.22;16147663;19;129827;-42
2022/05/26 10:43:49;;;;;;;9.48;1.67;;;;;;;21.30;41.84;102157.28;16146291;19;129212;-44
2022/05/26 10:49:22;;;;;;;8.25;2.42;;;;;;;21.29;41.90;102150.91;16144017;19;129086;-46
2022/05/26 10:54:52;;;;;;;10.40;2.17;;;;;;;21.29;41.64;102152.84;16146910;19;129401;-46
2022/05/26 11:00:21;;;;;;;5.30;1.92;;;;;;;21.30;41.51;102149.81;16148717;19;129242;-43
2022/05/26 11:05:53;;;;;;;4.03;1.50;;;;;;;21.32;41.65;102160.69;16145962;19;128883;-44
2022/05/26 11:11:27;;;;;;;5.55;1.42;;;;;;;21.31;41.62;102162.66;16142570;19;129493;-49
2022/05/26 11:22:35;;;;;;;4.85;1.38;;;;;;;21.28;41.27;102165.06;16141145;19;129270;-43
2022/05/26 11:28:05;;;;;;;5.22;1.40;;;;;;;21.28;41.67;102165.06;16143354;19;128929;-46
2022/05/26 11:39:31;;;;;;;8.05;1.83;;;;;;;21.27;41.35;102152.22;16145506;19;129557;-44
2022/05/26 11:45:09;;;;;;;4.75;1.40;;;;;;;21.29;41.14;102148.13;16145006;19;129316;-44
2022/05/26 11:50:42;;;;;;;6.00;1.52;;;;;;;21.28;41.34;102143.63;16140740;19;129044;-43
2022/05/26 11:56:30;;;;;;;7.18;1.38;;;;;;;21.29;41.02;102144.50;16144610;19;131703;-47
2022/05/26 12:01:58;;;;;;;7.15;1.27;;;;;;;21.28;40.96;102134.44;16139211;19;129689;-42
2022/05/26 12:07:22;;;;;;;5.80;1.20;;;;;;;21.26;40.96;102128.25;16141244;19;129354;-44
2022/05/26 12:12:44;;;;;;;2.35;0.95;;;;;;;21.27;41.15;102119.66;16142100;19;129216;-43
2022/05/26 12:18:18;;;;;;;4.10;1.00;;;;;;;21.28;40.61;102124.16;16139544;19;129385;-44
2022/05/26 12:23:42;;;;;;;3.53;1.10;;;;;;;21.29;40.54;102122.22;16141599;19;129445;-47
2022/05/26 12:29:41;;;;;;;4.93;1.10;;;;;;;21.30;40.78;102109.97;16139312;19;129853;-42
2022/05/26 12:35:06;;;;;;;4.68;1.27;;;;;;;21.28;40.57;102110.22;16140314;19;129062;-45
2022/05/26 12:40:36;;;;;;;2.33;0.87;;;;;;;21.30;40.71;102107.19;16136891;19;128844;-46
2022/05/26 12:46:16;;;;;;;2.63;0.85;;;;;;;21.30;40.57;102107.19;16141750;19;129179;-44
2022/05/26 12:51:39;;;;;;;2.55;0.77;;;;;;;21.29;40.74;102102.75;16134805;19;130460;-46
2022/05/26 12:57:01;;;;;;;2.05;0.80;;;;;;;21.28;41.09;102107.44;16141330;19;129716;-45
2022/05/26 13:02:30;;;;;;;3.97;0.93;;;;;;;21.30;40.67;102112.75;16139456;19;129459;-44
2022/05/26 13:07:54;;;;;;;3.28;1.10;;;;;;;21.28;40.64;102110.22;16138193;19;129446;-43
2022/05/26 13:13:29;;;;;;;4.47;1.23;;;;;;;21.29;40.83;102106.38;16139032;19;130109;-43
2022/05/26 13:18:55;;;;;;;3.35;0.93;;;;;;;21.28;40.53;102095.47;16134325;19;128982;-43
2022/05/26 13:24:20;;;;;;;3.15;0.80;;;;;;;21.28;40.67;102103.81;16138288;19;128962;-45
2022/05/26 13:29:44;;;;;;;;;;;;;;;21.26;40.76;102097.66;16136011;19;130057;-47
2022/05/26 13:35:15;;;;;;;2.88;0.65;;;;;;;21.29;40.20;102094.41;16138091;19;129202;-45
2022/05/26 13:40:37;;;;;;;2.83;0.75;;;;;;;21.26;40.35;102090.13;16137844;19;129164;-46
2022/05/26 13:46:00;;;;;;;3.70;1.00;;;;;;;21.26;40.28;102092.06;16138252;19;129019;-45
2022/05/26 13:51:38;;;;;;;2.03;0.93;;;;;;;21.27;40.66;102080.69;16149473;19;129076;-45
2022/05/26 13:57:03;;;;;;;3.22;0.95;;;;;;;21.26;40.59;102087.34;16150482;19;129430;-43
2022/05/26 14:02:32;;;;;;;1.77;0.73;;;;;;;21.26;40.74;102078.16;16151327;19;129202;-47
2022/05/26 14:07:57;;;;;;;2.45;0.77;;;;;;;21.25;40.29;102077.28;16148278;19;128828;-47
2022/05/26 14:13:18;;;;;;;3.07;0.70;;;;;;;21.26;40.42;102072.59;16150918;19;130140;-44
2022/05/26 14:18:44;;;;;;;1.85;0.63;;;;;;;21.26;40.37;102064.25;16146791;19;130191;-42
2022/05/26 14:24:24;;;;;;;2.50;0.80;;;;;;;21.28;40.48;102059.28;16151297;19;129401;-45
2022/05/26 14:29:57;;;;;;;3.83;0.70;;;;;;;21.27;40.19;102057.59;16146693;19;129240;-43
2022/05/26 14:35:19;;;;;;;4.05;0.95;;;;;;;21.26;40.27;102058.69;16149481;19;128868;-43
2022/05/26 14:40:47;;;;;;;3.10;0.60;;;;;;;21.27;40.39;102063.16;16147647;19;129485;-47
2022/05/26 14:46:09;;;;;;;3.45;0.77;;;;;;;21.27;40.40;102052.03;16150123;19;129308;-44
2022/05/26 14:51:32;;;;;;;3.28;0.60;;;;;;;21.26;40.24;102055.91;16143533;19;129136;-45
2022/05/26 14:56:55;;;;;;;3.47;0.70;;;;;;;21.26;40.42;102058.69;16147330;19;129264;-43
2022/05/26 15:02:17;;;;;;;1.13;0.50;;;;;;;21.26;40.55;102044.75;16146047;19;129291;-42
2022/05/26 15:07:41;;;;;;;3.55;0.70;;;;;;;21.25;40.61;102049.47;16145900;19;129901;-44
2022/05/26 15:13:03;;;;;;;1.67;0.57;;;;;;;21.25;40.69;102038.31;16145992;19;129221;-42
2022/05/26 15:18:26;;;;;;;2.35;0.93;;;;;;;21.25;40.27;102038.31;16136198;19;129127;-46
2022/05/26 15:23:49;;;;;;;1.25;0.50;;;;;;;21.24;40.74;102041.38;16138993;19;129325;-44
2022/05/26 15:29:10;;;;;;;2.88;0.82;;;;;;;21.25;40.62;102037.50;16138372;19;129387;-48
2022/05/26 15:34:32;;;;;;;3.33;1.27;;;;;;;21.22;40.60;102036.88;16137662;19;129979;-48
2022/05/26 15:39:55;;;;;;;3.28;0.80;;;;;;;21.22;40.42;102028.53;16141298;19;129355;-46
2022/05/26 15:45:18;;;;;;;6.50;1.00;;;;;;;21.22;40.60;102034.09;16142687;19;129733;-45
2022/05/26 15:50:39;;;;;;;3.00;0.80;;;;;;;21.25;40.73;102037.50;16140026;19;129230;-47
2022/05/26 15:56:05;;;;;;;2.28;0.70;;;;;;;21.22;40.71;102031.31;16144436;19;129707;-43
2022/05/26 16:01:28;;;;;;;9.75;0.80;;;;;;;21.23;40.50;102034.97;16142650;19;129977;-45
2022/05/26 16:06:50;;;;;;;4.93;1.05;;;;;;;21.21;40.46;102032.41;16139325;19;129924;-43
2022/05/26 16:12:11;;;;;;;2.65;0.68;;;;;;;21.21;40.19;102024.03;16131622;19;129494;-46
2022/05/26 16:17:33;;;;;;;8.23;0.88;;;;;;;21.22;40.13;102028.53;16139605;19;129557;-42
2022/05/26 16:22:55;;;;;;;6.88;1.08;;;;;;;21.22;40.21;102024.91;16140694;19;129576;-48
2022/05/26 16:28:17;;;;;;;2.70;0.65;;;;;;;21.22;40.76;102006.25;16141298;19;129483;-43
2022/05/26 16:33:39;;;;;;;5.20;1.10;;;;;;;21.26;40.70;102022.50;16134665;19;129635;-44
2022/05/26 16:39:01;;;;;;;2.60;0.50;;;;;;;21.28;40.75;102009.19;16141331;19;129572;-43
2022/05/26 16:44:24;;;;;;;4.00;1.25;;;;;;;21.29;40.41;102031.22;16139841;19;129598;-44
2022/05/26 16:49:49;;;;;;;2.58;0.60;;;;;;;21.29;40.39;102036.78;16137316;19;129921;-43
2022/05/26 16:55:11;;;;;;;2.88;0.77;;;;;;;21.29;40.41;102033.16;16138342;19;129234;-45
2022/05/26 17:00:33;;;;;;;3.05;0.50;;;;;;;21.31;40.63;102036.53;16138692;19;130190;-43
2022/05/26 17:05:55;;;;;;;3.35;0.70;;;;;;;21.31;40.77;102042.09;16137706;19;131621;-43
2022/05/26 17:11:17;;;;;;;2.40;0.70;;;;;;;21.30;40.65;102041.25;16128334;19;130924;-44
2022/05/26 17:22:19;;;;;;;3.17;0.65;;;;;;;21.29;40.85;102061.00;16138895;19;129740;-48
2022/05/26 17:27:45;;;;;;;2.97;0.57;;;;;;;21.29;40.79;102042.34;16146751;19;129385;-42
2022/05/26 17:33:08;;;;;;;;;;;;;;;21.26;40.73;102040.03;16139363;19;129251;-46
2022/05/26 17:38:30;;;;;;;1.90;0.63;;;;;;;21.27;40.67;102050.06;16144083;19;129507;-45
2022/05/26 17:43:52;;;;;;;3.80;0.90;;;;;;;21.26;40.83;102041.97;16146558;19;129444;-44
2022/05/26 17:49:16;;;;;;;2.90;0.90;;;;;;;21.27;40.76;102046.47;16148284;19;129229;-49
2022/05/26 17:54:41;;;;;;;3.47;0.80;;;;;;;21.28;41.01;102051.78;16144880;19;130502;-47
2022/05/26 18:05:45;;;;;;;5.65;0.90;;;;;;;21.26;40.80;102061.47;16146664;19;129484;-47
2022/05/26 18:11:08;;;;;;;2.17;0.75;;;;;;;21.24;40.88;102052.50;16141054;19;130239;-48
2022/05/26 18:16:31;;;;;;;2.95;0.80;;;;;;;21.22;40.69;102077.78;16147292;19;131107;-43
2022/05/26 18:21:54;;;;;;;4.07;0.95;;;;;;;21.20;40.82;102080.78;16147266;19;129309;-44
2022/05/26 18:27:17;;;;;;;4.10;0.68;;;;;;;21.20;40.64;102086.34;16147149;19;129461;-46
2022/05/26 18:32:40;;;;;;;3.20;0.60;;;;;;;21.18;40.79;102088.53;16141750;19;129600;-48
2022/05/26 18:38:02;;;;;;;5.80;0.90;;;;;;;21.17;40.72;102086.81;16145274;19;129350;-45
2022/05/26 18:43:23;;;;;;;3.35;0.73;;;;;;;21.14;40.97;102087.31;16147509;19;129549;-46
2022/05/26 18:48:45;;;;;;;3.83;0.90;;;;;;;21.13;40.83;102080.03;16141761;19;130342;-51
2022/05/26 18:54:07;;;;;;;2.55;0.88;;;;;;;21.11;40.94;102082.22;16145949;19;129333;-48
2022/05/26 18:59:29;;;;;;;2.80;0.70;;;;;;;21.11;40.84;102081.38;16138982;19;129451;-48
2022/05/26 19:04:53;;;;;;;4.78;0.98;;;;;;;21.08;40.85;102093.81;16139197;19;130046;-45
2022/05/26 19:10:22;;;;;;;4.13;0.57;;;;;;;21.09;40.83;102083.53;16129703;19;129288;-48
2022/05/26 19:15:44;;;;;;;6.15;0.75;;;;;;;21.06;40.83;102084.84;16137102;19;129670;-46
2022/05/26 19:21:07;;;;;;;6.63;0.70;;;;;;;21.06;41.48;102063.44;16136563;19;129603;-49
2022/05/26 19:26:29;;;;;;;2.85;0.50;;;;;;;21.09;41.44;102067.69;16143092;19;131745;-50
2022/05/26 19:31:51;;;;;;;5.55;0.60;;;;;;;21.14;41.33;102069.75;16138665;19;129351;-47
2022/05/26 19:37:13;;;;;;;6.13;0.70;;;;;;;21.18;41.54;102071.00;16142262;19;129950;-42
2022/05/26 19:42:37;;;;;;;9.45;0.82;;;;;;;21.22;41.34;102075.00;16140172;19;129727;-44
2022/05/26 19:48:00;;;;;;;10.15;1.08;;;;;;;21.25;41.64;102066.16;16136273;19;128850;-51
2022/05/26 19:53:24;;;;;;;9.77;0.90;;;;;;;21.28;41.76;102087.13;16135039;19;129397;-42
2022/05/26 19:58:46;;;;;;;9.35;0.98;;;;;;;21.33;41.70;102101.16;16139625;19;129422;-50
2022/05/26 20:04:09;;;;;;;6.43;0.60;;;;;;;21.36;41.66;102100.69;16137358;19;130232;-48
2022/05/26 20:09:32;;;;;;;28.42;1.17;;;;;;;21.39;41.47;102093.81;16134867;19;130411;-43
2022/05/26 20:14:53;;;;;;;13.00;1.42;;;;;;;21.42;41.48;102110.03;16138913;19;128919;-42
2022/05/26 20:20:18;;;;;;;12.52;1.17;;;;;;;21.41;41.57;102114.78;16134823;19;129700;-48
2022/05/26 20:25:43;;;;;;;7.53;1.05;;;;;;;21.40;41.31;102124.22;16136295;19;129815;-41
2022/05/26 20:31:05;;;;;;;3.13;0.70;;;;;;;21.38;41.31;102131.94;16130908;19;130601;-44
2022/05/26 20:36:27;;;;;;;3.60;0.70;;;;;;;21.37;41.18;102130.25;16129686;19;130354;-41
2022/05/26 20:41:52;;;;;;;18.92;1.33;;;;;;;21.36;41.23;102134.09;16137248;19;130090;-42
2022/05/26 20:47:16;;;;;;;63.87;3.30;;;;;;;21.38;41.66;102129.16;16135129;19;129528;-46
2022/05/26 20:52:38;;;;;;;18.13;1.38;;;;;;;21.33;41.56;102129.88;16130889;19;130190;-44
2022/05/26 20:57:59;;;;;;;10.38;0.95;;;;;;;21.29;41.16;102122.22;16134958;19;129333;-41
2022/05/26 21:03:21;;;;;;;10.38;0.90;;;;;;;21.26;41.53;102133.81;16133139;19;130361;-42
2022/05/26 21:08:43;;;;;;;11.68;1.40;;;;;;;21.20;41.61;102128.09;16130503;19;129929;-42
2022/05/26 21:14:05;;;;;;;9.70;1.20;;;;;;;21.18;41.35;102116.34;16129224;19;129683;-47
2022/05/26 21:19:29;;;;;;;10.95;0.95;;;;;;;21.17;41.71;102119.38;16130542;19;130251;-41
2022/05/26 21:24:50;;;;;;;7.88;0.60;;;;;;;21.14;41.38;102117.91;16133816;19;130382;-42
2022/05/26 21:30:15;;;;;;;5.07;0.60;;;;;;;21.11;41.38;102115.59;16132288;19;129702;-44
2022/05/26 21:35:36;;;;;;;6.75;0.70;;;;;;;21.10;41.58;102113.91;16133216;19;129871;-47
2022/05/26 21:40:59;;;;;;;3.55;0.63;;;;;;;21.07;41.59;102103.22;16132318;19;129543;-44
2022/05/26 21:46:21;;;;;;;5.88;0.75;;;;;;;21.05;41.40;102103.47;16128034;19;129878;-44
2022/05/26 21:51:49;;;;;;;6.53;1.17;;;;;;;21.03;41.56;102088.94;16130324;19;130012;-45
2022/05/26 21:57:13;;;;;;;3.15;0.43;;;;;;;21.02;41.25;102080.84;16134114;19;129063;-41
2022/05/26 22:02:43;;;;;;;3.60;0.45;;;;;;;21.00;41.28;102081.06;16128369;19;129795;-46
2022/05/26 22:13:45;;;;;;;2.50;0.52;;;;;;;20.97;41.23;102094.59;16142937;19;130361;-45
2022/05/26 22:19:08;;;;;;;2.10;0.38;;;;;;;20.97;41.12;102100.16;16142697;19;130499;-44
2022/05/26 22:24:29;;;;;;;1.98;0.40;;;;;;;20.95;41.00;102093.97;16141980;19;129566;-43
2022/05/26 22:29:51;;;;;;;2.60;0.50;;;;;;;20.95;41.24;102088.41;16143831;19;129763;-42
2022/05/26 22:35:25;;;;;;;3.78;0.60;;;;;;;20.94;41.11;102086.72;16146130;19;129267;-45
2022/05/26 22:40:48;;;;;;;0.90;0.30;;;;;;;20.92;41.49;102094.47;16143971;19;129848;-42
2022/05/26 22:46:10;;;;;;;1.08;0.50;;;;;;;20.90;41.36;102084.41;16142197;19;129538;-45
2022/05/26 22:51:32;;;;;;;1.52;0.30;;;;;;;20.88;41.07;102083.81;16136843;19;130903;-47
2022/05/26 22:56:54;;;;;;;2.25;0.50;;;;;;;20.88;40.95;102078.22;16142035;19;130451;-46
2022/05/26 23:02:16;;;;;;;3.03;0.50;;;;;;;20.86;41.39;102085.97;16135902;19;130554;-47
2022/05/26 23:07:38;;;;;;;2.20;0.50;;;;;;;20.87;41.11;102095.13;16138266;19;129422;-44
2022/05/26 23:13:00;;;;;;;1.58;0.50;;;;;;;20.85;41.11;102078.69;16135196;19;130004;-45
2022/05/26 23:18:23;;;;;;;1.15;0.40;;;;;;;20.86;40.82;102072.06;16134148;19;129903;-49
2022/05/26 23:23:46;;;;;;;3.25;0.60;;;;;;;20.85;40.96;102081.47;16136736;19;129927;-48
2022/05/26 23:29:07;;;;;;;3.92;0.60;;;;;;;20.84;41.32;102077.00;16135010;19;130112;-45
2022/05/26 23:34:30;;;;;;;1.65;0.52;;;;;;;20.84;41.19;102070.59;16131436;19;129372;-47
2022/05/26 23:39:52;;;;;;;2.58;0.40;;;;;;;20.83;40.92;102083.63;16136667;19;129864;-46
2022/05/26 23:45:14;;;;;;;1.15;0.50;;;;;;;20.81;41.11;102071.88;16137114;19;130487;-47
2022/05/26 23:50:35;;;;;;;1.25;0.32;;;;;;;20.81;41.12;102066.31;16137311;19;130081;-48
